Time;durP1;ratioP1;P1;durP2;ratioP2;P2;SDS_P1;SDS_P2;PMS_P1;PMS_P2;Temp;Humidity;BMP_temperature;BMP_pressure;BME280_temperature;BME280_humidity;BME280_pressure;Samples;Min_cycle;Max_cycle;Signal;HPM_P1;HPM_P2
2021/04/30 00:01:19;;;;;;;0.85;0.30;;;;;;;-142.37;100.00;59669.53;5054790;28;20056;-56
2021/04/30 00:03:44;;;;;;;0.25;0.13;;;;;;;-142.37;100.00;59669.53;5054993;28;20044;-56
2021/04/30 00:06:09;;;;;;;0.45;0.10;;;;;;;-142.37;100.00;59669.53;5054951;28;20033;-56
2021/04/30 00:08:37;;;;;;;0.20;0.20;;;;;;;-142.37;100.00;59669.53;5054866;28;20024;-56
2021/04/30 00:11:03;;;;;;;0.43;0.30;;;;;;;-142.37;100.00;59669.53;5054872;28;20116;-56
2021/04/30 00:13:28;;;;;;;0.20;0.10;;;;;;;-142.37;100.00;59669.53;5054612;28;20112;-56
2021/04/30 00:15:53;;;;;;;0.47;0.10;;;;;;;-142.37;100.00;59669.53;5054812;28;20052;-56
2021/04/30 00:18:18;;;;;;;0.57;0.20;;;;;;;-142.37;100.00;59669.53;5054658;28;20376;-56
2021/04/30 00:21:02;;;;;;;0.30;0.10;;;;;;;-142.37;100.00;59669.53;5054460;28;20080;-55
2021/04/30 00:23:29;;;;;;;0.20;0.10;;;;;;;-142.37;100.00;59669.53;5054486;28;20358;-56
2021/04/30 00:25:56;;;;;;;1.00;0.10;;;;;;;-142.37;100.00;59669.53;5054688;28;20025;-56
2021/04/30 00:28:23;;;;;;;0.85;0.28;;;;;;;-142.37;100.00;59669.53;5054422;28;20025;-56
2021/04/30 00:30:50;;;;;;;0.35;0.17;;;;;;;-142.37;100.00;59669.53;5054062;28;20384;-56
2021/04/30 00:33:16;;;;;;;0.98;0.22;;;;;;;-142.37;100.00;59669.53;5054361;28;20211;-55
2021/04/30 00:35:42;;;;;;;1.25;0.30;;;;;;;-142.37;100.00;59669.53;5054284;28;20574;-56
2021/04/30 00:38:08;;;;;;;0.68;0.30;;;;;;;-142.37;100.00;59669.53;5054383;28;20033;-56
2021/04/30 00:40:33;;;;;;;1.45;0.20;;;;;;;-142.37;100.00;59669.53;5054087;28;20039;-56
2021/04/30 00:42:59;;;;;;;0.40;0.22;;;;;;;-142.37;100.00;59669.53;5054637;28;20028;-55
2021/04/30 00:45:24;;;;;;;0.20;0.10;;;;;;;-142.37;100.00;59669.53;5054028;28;20031;-56
2021/04/30 00:47:51;;;;;;;0.60;0.10;;;;;;;-142.37;100.00;59669.53;5054186;28;20063;-56
2021/04/30 00:50:21;;;;;;;0.30;0.10;;;;;;;-142.37;100.00;59669.53;5053873;28;20100;-56
2021/04/30 00:52:46;;;;;;;0.30;0.10;;;;;;;-142.37;100.00;59669.53;5054161;28;20036;-56
2021/04/30 00:55:14;;;;;;;0.20;0.10;;;;;;;-142.37;100.00;59669.53;5054312;28;20029;-56
2021/04/30 00:57:44;;;;;;;1.08;0.30;;;;;;;-142.37;100.00;59669.53;5053887;28;20034;-56
2021/04/30 01:00:10;;;;;;;0.35;0.10;;;;;;;-142.37;100.00;59669.53;5053892;28;20017;-56
2021/04/30 01:02:38;;;;;;;0.55;0.20;;;;;;;-142.37;100.00;59669.53;5053776;28;20064;-56
2021/04/30 01:05:04;;;;;;;0.47;0.20;;;;;;;-142.37;100.00;59669.53;5053998;28;20465;-55
2021/04/30 01:07:30;;;;;;;0.55;0.13;;;;;;;-142.37;100.00;59669.53;5052423;28;20407;-56
2021/04/30 01:09:58;;;;;;;0.68;0.30;;;;;;;-142.37;100.00;59669.53;5053877;28;20028;-55
2021/04/30 01:12:23;;;;;;;0.60;0.20;;;;;;;-142.37;100.00;59669.53;5053582;28;20062;-56
2021/04/30 01:14:49;;;;;;;0.35;0.20;;;;;;;-142.37;100.00;59669.53;5052468;28;20099;-55
2021/04/30 01:17:14;;;;;;;0.60;0.20;;;;;;;-142.37;100.00;59669.53;5053631;28;20206;-56
2021/04/30 01:19:40;;;;;;;1.17;0.30;;;;;;;-142.37;100.00;59669.53;5053465;28;20068;-55
2021/04/30 01:22:05;;;;;;;0.82;0.20;;;;;;;-142.37;100.00;59669.53;5053563;28;20135;-55
2021/04/30 01:24:30;;;;;;;0.20;0.13;;;;;;;-142.37;100.00;59669.53;5053259;28;20104;-56
2021/04/30 01:26:56;;;;;;;0.38;0.38;;;;;;;-142.37;100.00;59669.53;5053565;28;20025;-56
2021/04/30 01:29:21;;;;;;;0.10;0.00;;;;;;;-142.37;100.00;59669.53;5053310;28;20029;-56
2021/04/30 01:31:47;;;;;;;0.70;0.10;;;;;;;-142.37;100.00;59669.53;5053354;28;20282;-56
2021/04/30 01:34:13;;;;;;;0.85;0.30;;;;;;;-142.37;100.00;59669.53;5053319;28;20036;-56
2021/04/30 01:36:39;;;;;;;1.85;0.20;;;;;;;-142.37;100.00;59669.53;5053537;28;20025;-56
2021/04/30 01:39:09;;;;;;;0.30;0.10;;;;;;;-142.37;100.00;59669.53;5053329;28;20032;-56
2021/04/30 01:41:36;;;;;;;0.55;0.30;;;;;;;-142.37;100.00;59669.53;5052033;28;20028;-55
2021/04/30 01:44:06;;;;;;;0.20;0.10;;;;;;;-142.37;100.00;59669.53;5053274;28;20025;-56
2021/04/30 01:46:32;;;;;;;0.52;0.20;;;;;;;-142.37;100.00;59669.53;5053197;28;20032;-56
2021/04/30 01:48:57;;;;;;;1.30;0.20;;;;;;;-142.37;100.00;59669.53;5053165;28;20025;-55
2021/04/30 01:51:23;;;;;;;0.95;0.20;;;;;;;-142.37;100.00;59669.53;5053112;28;20017;-55
2021/04/30 01:53:48;;;;;;;0.77;0.17;;;;;;;-142.37;100.00;59669.53;5053016;28;20025;-56
2021/04/30 01:56:14;;;;;;;0.80;0.20;;;;;;;-142.37;100.00;59669.53;5052862;28;20416;-56
2021/04/30 01:58:41;;;;;;;0.68;0.30;;;;;;;-142.37;100.00;59669.53;5052882;28;20021;-55
2021/04/30 02:01:06;;;;;;;0.73;0.20;;;;;;;-142.37;100.00;59669.53;5071955;28;20024;-56
2021/04/30 02:03:32;;;;;;;1.02;0.30;;;;;;;-142.37;100.00;59669.53;5072518;28;20468;-56
2021/04/30 02:05:57;;;;;;;0.20;0.00;;;;;;;-142.37;100.00;59669.53;5072902;28;20376;-56
2021/04/30 02:08:23;;;;;;;0.40;0.25;;;;;;;-142.37;100.00;59669.53;5072601;28;20103;-56
2021/04/30 02:10:48;;;;;;;0.57;0.25;;;;;;;-142.37;100.00;59669.53;5072773;28;20341;-56
2021/04/30 02:13:16;;;;;;;0.35;0.20;;;;;;;-142.37;100.00;59669.53;5072613;28;20031;-56
2021/04/30 02:15:45;;;;;;;0.38;0.10;;;;;;;-142.37;100.00;59669.53;5072571;28;20016;-55
2021/04/30 02:18:10;;;;;;;1.27;0.32;;;;;;;-142.37;100.00;59669.53;5072585;28;20032;-56
2021/04/30 02:20:36;;;;;;;0.30;0.20;;;;;;;-142.37;100.00;59669.53;5072253;28;20083;-55
2021/04/30 02:23:02;;;;;;;0.28;0.20;;;;;;;-142.37;100.00;59669.53;5072626;28;20028;-56
2021/04/30 02:25:28;;;;;;;0.47;0.20;;;;;;;-142.37;100.00;59669.53;5072273;28;20021;-56
2021/04/30 02:27:56;;;;;;;0.70;0.20;;;;;;;-142.37;100.00;59669.53;5072847;28;20050;-56
2021/04/30 02:30:22;;;;;;;0.95;0.20;;;;;;;-142.37;100.00;59669.53;5072547;28;20028;-55
2021/04/30 02:32:49;;;;;;;0.47;0.13;;;;;;;-142.37;100.00;59669.53;5072523;28;20032;-56
2021/04/30 02:35:18;;;;;;;0.73;0.30;;;;;;;-142.37;100.00;59669.53;5071979;28;20025;-56
2021/04/30 02:37:44;;;;;;;1.65;0.47;;;;;;;-142.37;100.00;59669.53;5072345;28;20067;-56
2021/04/30 02:40:12;;;;;;;0.47;0.20;;;;;;;-142.37;100.00;59669.53;5069170;28;20036;-55
2021/04/30 02:42:38;;;;;;;1.15;0.40;;;;;;;-142.37;100.00;59669.53;5052612;28;20423;-56
2021/04/30 02:45:07;;;;;;;0.30;0.10;;;;;;;-142.37;100.00;59669.53;5052382;28;20383;-56
2021/04/30 02:47:34;;;;;;;0.35;0.20;;;;;;;-142.37;100.00;59669.53;5051844;28;20103;-56
2021/04/30 02:50:00;;;;;;;1.10;0.22;;;;;;;-142.37;100.00;59669.53;5052431;28;20043;-56
2021/04/30 02:52:26;;;;;;;1.15;0.20;;;;;;;-142.37;100.00;59669.53;5051093;28;20403;-55
2021/04/30 02:54:51;;;;;;;1.50;0.35;;;;;;;-142.37;100.00;59669.53;5056326;28;20029;-55
2021/04/30 02:57:17;;;;;;;2.78;0.80;;;;;;;-142.37;100.00;59669.53;5056205;28;20070;-55
2021/04/30 02:59:42;;;;;;;1.38;0.20;;;;;;;-142.37;100.00;59669.53;5056146;28;20070;-56
2021/04/30 03:02:08;;;;;;;0.75;0.30;;;;;;;-142.37;100.00;59669.53;5056235;28;20110;-56
2021/04/30 03:04:33;;;;;;;1.55;0.40;;;;;;;-142.37;100.00;59669.53;5056116;28;20031;-56
2021/04/30 03:06:58;;;;;;;1.55;0.10;;;;;;;-142.37;100.00;59669.53;5055239;28;20407;-56
2021/04/30 03:09:24;;;;;;;0.20;0.08;;;;;;;-142.37;100.00;59669.53;5056204;28;20383;-56
2021/04/30 03:11:49;;;;;;;0.47;0.20;;;;;;;-142.37;100.00;59669.53;5056032;28;20020;-56
2021/04/30 03:14:14;;;;;;;0.20;0.03;;;;;;;-142.37;100.00;59669.53;5056026;28;20033;-55
2021/04/30 03:16:40;;;;;;;2.63;0.90;;;;;;;-142.37;100.00;59669.53;5056245;28;20039;-56
2021/04/30 03:19:05;;;;;;;0.20;0.15;;;;;;;-142.37;100.00;59669.53;5055826;28;20060;-55
2021/04/30 03:21:30;;;;;;;1.33;0.40;;;;;;;-142.37;100.00;59669.53;5055508;28;20086;-56
2021/04/30 03:23:56;;;;;;;0.68;0.20;;;;;;;-142.37;100.00;59669.53;5055954;28;20025;-56
2021/04/30 03:26:21;;;;;;;0.10;0.00;;;;;;;-142.37;100.00;59669.53;5055650;28;20390;-56
2021/04/30 03:28:47;;;;;;;0.47;0.20;;;;;;;-142.37;100.00;59669.53;5055778;28;20461;-55
2021/04/30 03:31:12;;;;;;;0.55;0.10;;;;;;;-142.37;100.00;59669.53;5055711;28;20625;-56
2021/04/30 03:33:38;;;;;;;0.15;0.05;;;;;;;-142.37;100.00;59669.53;5055545;28;20051;-55
2021/04/30 03:36:05;;;;;;;0.45;0.10;;;;;;;-142.37;100.00;59669.53;5055654;28;20024;-56
2021/04/30 03:38:31;;;;;;;0.52;0.15;;;;;;;-142.37;100.00;59669.53;5055418;28;20475;-56
2021/04/30 03:40:56;;;;;;;0.20;0.00;;;;;;;-142.37;100.00;59669.53;5055509;28;20033;-56
2021/04/30 03:43:21;;;;;;;0.95;0.30;;;;;;;-142.37;100.00;59669.53;5055205;28;20025;-56
2021/04/30 03:45:46;;;;;;;1.02;0.40;;;;;;;-142.37;100.00;59669.53;5037438;28;20029;-55
2021/04/30 03:48:12;;;;;;;0.52;0.15;;;;;;;-142.37;100.00;59669.53;5055295;28;20029;-56
2021/04/30 03:50:37;;;;;;;0.77;0.10;;;;;;;-142.37;100.00;59669.53;5055321;28;20083;-55
2021/04/30 03:53:02;;;;;;;0.10;0.10;;;;;;;-142.37;100.00;59669.53;5055264;28;20535;-56
2021/04/30 03:55:28;;;;;;;0.40;0.10;;;;;;;-142.37;100.00;59669.53;5054944;28;20032;-56
2021/04/30 03:57:53;;;;;;;0.88;0.10;;;;;;;-142.37;100.00;59669.53;5055266;28;20040;-56
2021/04/30 04:00:19;;;;;;;0.22;0.10;;;;;;;-142.37;100.00;59669.53;5054825;28;20029;-56
2021/04/30 04:02:46;;;;;;;0.32;0.10;;;;;;;-142.37;100.00;59669.53;5055161;28;20033;-56
2021/04/30 04:05:12;;;;;;;0.25;0.10;;;;;;;-142.37;100.00;59669.53;5054182;28;20021;-55
2021/04/30 04:07:37;;;;;;;0.10;0.10;;;;;;;-142.37;100.00;59669.53;5053501;28;20526;-56
2021/04/30 04:10:03;;;;;;;0.03;0.03;;;;;;;-142.37;100.00;59669.53;5054965;28;20369;-56
2021/04/30 04:12:28;;;;;;;0.00;0.00;;;;;;;-142.37;100.00;59669.53;5054758;28;20021;-56
2021/04/30 04:14:54;;;;;;;0.30;0.10;;;;;;;-142.37;100.00;59669.53;5054918;28;20111;-55
2021/04/30 04:17:19;;;;;;;0.47;0.20;;;;;;;-142.37;100.00;59669.53;5054746;28;20460;-55
2021/04/30 04:19:48;;;;;;;0.35;0.10;;;;;;;-142.37;100.00;59669.53;5054542;28;20040;-56
2021/04/30 04:22:14;;;;;;;0.10;0.10;;;;;;;-142.37;100.00;59669.53;5054599;28;20025;-57
2021/04/30 04:24:40;;;;;;;0.20;0.10;;;;;;;-142.37;100.00;59669.53;5054599;28;20025;-56
2021/04/30 04:27:06;;;;;;;1.25;0.10;;;;;;;-142.37;100.00;59669.53;5054689;28;20063;-56
2021/04/30 04:29:31;;;;;;;0.40;0.10;;;;;;;-142.37;100.00;59669.53;5054412;28;20029;-56
2021/04/30 04:31:56;;;;;;;0.95;0.10;;;;;;;-142.37;100.00;59669.53;5054636;28;20412;-56
2021/04/30 04:34:22;;;;;;;0.52;0.10;;;;;;;-142.37;100.00;59669.53;5053170;28;20025;-56
2021/04/30 04:36:47;;;;;;;0.28;0.10;;;;;;;-142.37;100.00;59669.53;5054339;28;20052;-56
2021/04/30 04:39:12;;;;;;;0.65;0.10;;;;;;;-142.37;100.00;59669.53;5054438;28;20029;-56
2021/04/30 04:41:37;;;;;;;0.35;0.10;;;;;;;-142.37;100.00;59669.53;5054083;28;20087;-56
2021/04/30 04:44:03;;;;;;;0.77;0.20;;;;;;;-142.37;100.00;59669.53;5054277;28;20033;-56
2021/04/30 04:46:28;;;;;;;0.50;0.20;;;;;;;-142.37;100.00;59669.53;5074029;28;20024;-56
2021/04/30 04:48:53;;;;;;;0.43;0.00;;;;;;;-142.37;100.00;59669.53;5073959;28;20024;-56
2021/04/30 04:51:19;;;;;;;0.55;0.20;;;;;;;-142.37;100.00;59669.53;5073913;28;20017;-57
2021/04/30 04:53:44;;;;;;;0.50;0.20;;;;;;;-142.37;100.00;59669.53;5074093;28;20035;-56
2021/04/30 04:56:09;;;;;;;0.22;0.10;;;;;;;-142.37;100.00;59669.53;5074040;28;20402;-56
2021/04/30 04:58:34;;;;;;;1.15;0.28;;;;;;;-142.37;100.00;59669.53;5073950;28;20021;-55
2021/04/30 05:01:00;;;;;;;0.47;0.25;;;;;;;-142.37;100.00;59669.53;5073945;28;20026;-56
2021/04/30 05:03:26;;;;;;;1.20;0.25;;;;;;;-142.37;100.00;59669.53;5073791;28;20050;-56
2021/04/30 05:05:51;;;;;;;0.45;0.15;;;;;;;-142.37;100.00;59669.53;5073529;28;20047;-57
2021/04/30 05:08:16;;;;;;;0.43;0.10;;;;;;;-142.37;100.00;59669.53;5073707;28;20025;-56
2021/04/30 05:10:41;;;;;;;0.43;0.10;;;;;;;-142.37;100.00;59669.53;5073838;28;20448;-56
2021/04/30 05:13:07;;;;;;;1.65;0.20;;;;;;;-142.37;100.00;59669.53;5073736;28;20029;-56
2021/04/30 05:15:32;;;;;;;0.85;0.13;;;;;;;-142.37;100.00;59669.53;5055528;28;20116;-56
2021/04/30 05:17:57;;;;;;;1.20;0.15;;;;;;;-142.37;100.00;59669.53;5073738;28;20028;-56
2021/04/30 05:20:22;;;;;;;0.68;0.20;;;;;;;-142.37;100.00;59669.53;5073122;28;20050;-56
2021/04/30 05:22:48;;;;;;;0.57;0.20;;;;;;;-142.37;100.00;59669.53;5055639;28;20040;-56
2021/04/30 05:25:14;;;;;;;0.10;0.08;;;;;;;-142.37;100.00;59669.53;5073413;28;20021;-56
2021/04/30 05:27:41;;;;;;;0.25;0.00;;;;;;;-142.37;100.00;59669.53;5073344;28;20103;-57
2021/04/30 05:30:11;;;;;;;0.38;0.10;;;;;;;-142.37;100.00;59669.53;5073407;28;20058;-56
2021/04/30 05:32:36;;;;;;;0.43;0.10;;;;;;;-142.37;100.00;59669.53;5073188;28;20024;-57
2021/04/30 05:35:03;;;;;;;0.60;0.05;;;;;;;-142.37;100.00;59669.53;5073680;28;20035;-56
2021/04/30 05:37:30;;;;;;;0.85;0.30;;;;;;;-142.37;100.00;59669.53;5073016;28;20024;-56
2021/04/30 05:39:55;;;;;;;0.55;0.28;;;;;;;-142.37;100.00;59669.53;5072214;28;20051;-56
2021/04/30 05:42:20;;;;;;;0.10;0.10;;;;;;;-142.37;100.00;59669.53;5053019;28;20028;-55
2021/04/30 05:44:46;;;;;;;0.47;0.20;;;;;;;-142.37;100.00;59669.53;5053223;28;20047;-55
2021/04/30 05:47:11;;;;;;;0.20;0.03;;;;;;;-142.37;100.00;59669.53;5053106;28;20024;-56
2021/04/30 05:49:36;;;;;;;0.88;0.20;;;;;;;-142.37;100.00;59669.53;5052936;28;20033;-55
2021/04/30 05:52:02;;;;;;;1.75;0.10;;;;;;;-142.37;100.00;59669.53;5053158;28;20066;-56
2021/04/30 05:54:27;;;;;;;0.20;0.10;;;;;;;-142.37;100.00;59669.53;5052888;28;20021;-56
2021/04/30 05:56:53;;;;;;;0.47;0.13;;;;;;;-142.37;100.00;59669.53;5053291;28;20021;-56
2021/04/30 05:59:19;;;;;;;0.30;0.20;;;;;;;-142.37;100.00;59669.53;5052775;28;20392;-55
2021/04/30 06:01:44;;;;;;;0.75;0.20;;;;;;;-142.37;100.00;59669.53;5052674;28;20056;-56
2021/04/30 06:04:09;;;;;;;0.65;0.45;;;;;;;-142.37;100.00;59669.53;5052910;28;20033;-56
2021/04/30 06:06:35;;;;;;;0.40;0.20;;;;;;;-142.37;100.00;59669.53;5052659;28;20354;-56
2021/04/30 06:09:00;;;;;;;0.10;0.10;;;;;;;-142.37;100.00;59669.53;5052892;28;20070;-56
2021/04/30 06:11:25;;;;;;;0.80;0.20;;;;;;;-142.37;100.00;59669.53;5052530;28;20056;-56
2021/04/30 06:13:51;;;;;;;0.20;0.17;;;;;;;-142.37;100.00;59669.53;5053296;28;20033;-56
2021/04/30 06:16:16;;;;;;;0.75;0.10;;;;;;;-142.37;100.00;59669.53;5052507;28;20028;-55
2021/04/30 06:18:42;;;;;;;0.68;0.15;;;;;;;-142.37;100.00;59669.53;5052847;28;20029;-56
2021/04/30 06:21:07;;;;;;;0.20;0.10;;;;;;;-142.37;100.00;59669.53;5052378;28;20060;-56
2021/04/30 06:23:32;;;;;;;0.30;0.10;;;;;;;-142.37;100.00;59669.53;5052307;28;20021;-57
2021/04/30 06:25:58;;;;;;;0.75;0.30;;;;;;;-142.37;100.00;59669.53;5051359;28;20031;-56
2021/04/30 06:28:23;;;;;;;0.45;0.20;;;;;;;-142.37;100.00;59669.53;5052001;28;20042;-55
2021/04/30 06:30:50;;;;;;;0.30;0.10;;;;;;;-142.37;100.00;59669.53;5052612;28;20484;-56
2021/04/30 06:33:15;;;;;;;0.32;0.13;;;;;;;-142.37;100.00;59669.53;5051034;28;20423;-55
2021/04/30 06:35:41;;;;;;;1.13;0.20;;;;;;;-142.37;100.00;59669.53;5052355;28;20020;-56
2021/04/30 06:38:06;;;;;;;0.75;0.22;;;;;;;-142.37;100.00;59669.53;5052366;28;20028;-55
2021/04/30 06:40:32;;;;;;;0.57;0.25;;;;;;;-142.37;100.00;59669.53;5051146;28;20381;-56
2021/04/30 06:42:57;;;;;;;0.55;0.20;;;;;;;-142.37;100.00;59669.53;5049325;28;20039;-55
2021/04/30 06:45:23;;;;;;;0.40;0.10;;;;;;;-142.37;100.00;59669.53;5051639;28;20021;-58
2021/04/30 06:47:48;;;;;;;1.30;0.10;;;;;;;-142.37;100.00;59669.53;5050235;28;20033;-56
2021/04/30 06:50:14;;;;;;;0.47;0.20;;;;;;;-142.37;100.00;59669.53;5051305;28;20482;-56
2021/04/30 06:52:39;;;;;;;0.32;0.20;;;;;;;-142.37;100.00;59669.53;5051474;28;20032;-57
2021/04/30 06:55:06;;;;;;;1.15;0.40;;;;;;;-142.37;100.00;59669.53;5049912;28;20029;-56
2021/04/30 06:57:32;;;;;;;0.75;0.30;;;;;;;-142.37;100.00;59669.53;5049450;28;20521;-57
2021/04/30 06:59:57;;;;;;;0.40;0.40;;;;;;;-142.37;100.00;59669.53;5050676;28;20032;-57
2021/04/30 07:02:22;;;;;;;1.25;0.35;;;;;;;-142.37;100.00;59669.53;5051985;28;20028;-57
2021/04/30 07:04:49;;;;;;;1.83;0.40;;;;;;;-142.37;100.00;59669.53;5050584;28;20487;-55
2021/04/30 07:07:14;;;;;;;0.85;0.55;;;;;;;-142.37;100.00;59669.53;5051771;28;20020;-57
2021/04/30 07:09:40;;;;;;;1.95;0.55;;;;;;;-142.37;100.00;59669.53;5050282;28;20029;-56
2021/04/30 07:12:06;;;;;;;0.98;0.40;;;;;;;-142.37;100.00;59669.53;5051856;28;20028;-55
2021/04/30 07:14:31;;;;;;;2.67;0.50;;;;;;;-142.37;100.00;59669.53;5050501;28;20470;-56
2021/04/30 07:16:56;;;;;;;2.25;0.60;;;;;;;-142.37;100.00;59669.53;5051168;28;20033;-57
2021/04/30 07:19:21;;;;;;;3.65;0.60;;;;;;;-142.37;100.00;59669.53;5049764;28;20036;-58
2021/04/30 07:21:47;;;;;;;0.15;0.13;;;;;;;-142.37;100.00;59669.53;5047496;28;20056;-56
2021/04/30 07:24:12;;;;;;;1.38;0.60;;;;;;;-142.37;100.00;59669.53;5039583;28;20047;-57
2021/04/30 07:26:37;;;;;;;1.35;0.50;;;;;;;-142.37;100.00;59669.53;5046938;28;20025;-55
2021/04/30 07:29:03;;;;;;;2.00;0.90;;;;;;;-142.37;100.00;59669.53;5048521;28;20104;-56
2021/04/30 07:31:28;;;;;;;1.65;0.95;;;;;;;-142.37;100.00;59669.53;5031070;28;20018;-57
2021/04/30 07:33:53;;;;;;;2.25;1.08;;;;;;;-142.37;100.00;59669.53;5025894;28;20048;-55
2021/04/30 07:36:18;;;;;;;1.20;1.10;;;;;;;-142.37;100.00;59669.53;5047354;28;20099;-56
2021/04/30 07:38:44;;;;;;;3.20;1.10;;;;;;;-142.37;100.00;59669.53;5041098;28;20024;-56
2021/04/30 07:41:10;;;;;;;1.83;0.90;;;;;;;-142.37;100.00;59669.53;5050847;28;20025;-57
2021/04/30 07:43:35;;;;;;;3.40;1.48;;;;;;;-142.37;100.00;59669.53;5046993;28;20025;-55
2021/04/30 07:46:01;;;;;;;1.77;0.90;;;;;;;-142.37;100.00;59669.53;5038201;28;20492;-57
2021/04/30 07:48:28;;;;;;;1.67;0.70;;;;;;;-142.37;100.00;59669.53;5034439;28;20037;-55
2021/04/30 07:50:53;;;;;;;2.65;1.13;;;;;;;-142.37;100.00;59669.53;5035553;28;20025;-55
2021/04/30 07:53:19;;;;;;;0.82;0.57;;;;;;;-142.37;100.00;59669.53;5043292;28;20025;-56
2021/04/30 07:55:45;;;;;;;1.90;0.70;;;;;;;-142.37;100.00;59669.53;5054429;28;20032;-56
2021/04/30 07:58:10;;;;;;;1.23;0.98;;;;;;;-142.37;100.00;59669.53;5054330;28;20021;-56
2021/04/30 08:00:35;;;;;;;1.38;0.90;;;;;;;-142.37;100.00;59669.53;5054615;28;20032;-56
2021/04/30 08:03:01;;;;;;;1.25;0.63;;;;;;;-142.37;100.00;59669.53;5054856;28;20379;-57
2021/04/30 08:05:26;;;;;;;0.93;0.77;;;;;;;-142.37;100.00;59669.53;5050466;28;20468;-56
2021/04/30 08:07:53;;;;;;;0.63;0.55;;;;;;;-142.37;100.00;59669.53;5049776;28;20472;-56
2021/04/30 08:10:18;;;;;;;1.17;0.70;;;;;;;-142.37;100.00;59669.53;5053939;28;20032;-56
2021/04/30 08:12:43;;;;;;;1.13;0.50;;;;;;;-142.37;100.00;59669.53;5053851;28;20025;-56
2021/04/30 08:15:11;;;;;;;1.80;0.60;;;;;;;-142.37;100.00;59669.53;5054917;28;20021;-56
2021/04/30 08:17:37;;;;;;;0.70;0.52;;;;;;;-142.37;100.00;59669.53;5054364;28;20433;-56
2021/04/30 08:20:05;;;;;;;0.57;0.35;;;;;;;-142.37;100.00;59669.53;5054293;28;20119;-55
2021/04/30 08:22:31;;;;;;;0.55;0.30;;;;;;;-142.37;100.00;59669.53;5054110;28;20071;-56
2021/04/30 08:24:57;;;;;;;0.82;0.35;;;;;;;-142.37;100.00;59669.53;5053441;28;20032;-55
2021/04/30 08:27:23;;;;;;;0.40;0.40;;;;;;;-142.37;100.00;59669.53;5030703;28;20028;-56
2021/04/30 08:29:49;;;;;;;1.05;0.50;;;;;;;-142.37;100.00;59669.53;5053261;28;20555;-56
2021/04/30 08:32:14;;;;;;;0.85;0.47;;;;;;;-142.37;100.00;59669.53;5036220;28;20469;-55
2021/04/30 08:34:40;;;;;;;0.30;0.22;;;;;;;-142.37;100.00;59669.53;5052111;28;20035;-56
2021/04/30 08:37:06;;;;;;;0.55;0.30;;;;;;;-142.37;100.00;59669.53;5043828;28;20024;-55
2021/04/30 08:39:31;;;;;;;1.10;0.60;;;;;;;-142.37;100.00;59669.53;5052045;28;20221;-57
2021/04/30 08:41:57;;;;;;;0.55;0.20;;;;;;;-142.37;100.00;59669.53;5052083;28;20423;-55
2021/04/30 08:44:23;;;;;;;0.75;0.20;;;;;;;-142.37;100.00;59669.53;5052244;28;20510;-56
2021/04/30 08:46:48;;;;;;;0.98;0.45;;;;;;;-142.37;100.00;59669.53;5046986;28;20048;-55
2021/04/30 08:49:14;;;;;;;0.70;0.30;;;;;;;-142.37;100.00;59669.53;5046840;28;20051;-55
2021/04/30 08:51:39;;;;;;;1.83;0.30;;;;;;;-142.37;100.00;59669.53;5052477;28;20380;-56
2021/04/30 08:54:06;;;;;;;1.13;0.30;;;;;;;-142.37;100.00;59669.53;5045407;28;20465;-56
2021/04/30 08:56:32;;;;;;;2.08;0.40;;;;;;;-142.37;100.00;59669.53;5033272;28;20377;-55
2021/04/30 08:58:58;;;;;;;0.30;0.20;;;;;;;-142.37;100.00;59669.53;5052696;28;20021;-56
2021/04/30 09:01:23;;;;;;;0.73;0.30;;;;;;;-142.37;100.00;59669.53;5051713;28;20021;-55
2021/04/30 09:03:51;;;;;;;1.40;0.40;;;;;;;-142.37;100.00;59669.53;5051288;28;20036;-57
2021/04/30 09:06:31;;;;;;;0.75;0.25;;;;;;;-142.37;100.00;59669.53;5049980;28;20091;-56
2021/04/30 09:08:56;;;;;;;0.50;0.20;;;;;;;-142.37;100.00;59669.53;5044567;28;20017;-56
2021/04/30 09:11:35;;;;;;;0.95;0.35;;;;;;;-142.37;100.00;59669.53;5033016;28;20036;-56
2021/04/30 09:14:31;;;;;;;1.02;0.63;;;;;;;-142.37;100.00;59669.53;5034286;28;20021;-55
2021/04/30 09:17:17;;;;;;;1.17;0.20;;;;;;;-142.37;100.00;59669.53;5042546;28;20112;-55
2021/04/30 09:19:55;;;;;;;0.20;0.20;;;;;;;-142.37;100.00;59669.53;5047185;28;20049;-56
2021/04/30 09:22:21;;;;;;;0.17;0.13;;;;;;;-142.37;100.00;59669.53;5046767;28;20063;-56
2021/04/30 09:25:16;;;;;;;0.17;0.10;;;;;;;-142.37;100.00;59669.53;5044275;28;20037;-57
2021/04/30 09:27:43;;;;;;;0.63;0.20;;;;;;;-142.37;100.00;59669.53;5040389;28;20029;-56
2021/04/30 09:30:27;;;;;;;0.73;0.20;;;;;;;-142.37;100.00;59669.53;5034778;28;20037;-56
2021/04/30 09:33:17;;;;;;;0.63;0.30;;;;;;;-142.37;100.00;59669.53;5047590;28;20061;-57
2021/04/30 09:35:50;;;;;;;0.43;0.25;;;;;;;-142.37;100.00;59669.53;5034448;28;20087;-56
2021/04/30 09:38:26;;;;;;;0.60;0.37;;;;;;;-142.37;100.00;59669.53;5017607;28;20365;-56
2021/04/30 09:41:12;;;;;;;0.60;0.35;;;;;;;-142.37;100.00;59669.53;5051037;28;20282;-57
2021/04/30 09:43:40;;;;;;;0.15;0.10;;;;;;;-142.37;100.00;59669.53;5052667;28;20473;-56
2021/04/30 09:46:41;;;;;;;0.57;0.15;;;;;;;-142.37;100.00;59669.53;5052591;28;20035;-56
2021/04/30 09:49:11;;;;;;;0.80;0.20;;;;;;;-142.37;100.00;59669.53;4960586;28;20039;-57
2021/04/30 09:51:51;;;;;;;0.40;0.20;;;;;;;-142.37;100.00;59669.53;4970444;28;20118;-57
2021/04/30 09:54:30;;;;;;;0.38;0.15;;;;;;;-142.37;100.00;59669.53;4972722;28;20422;-56
2021/04/30 09:57:04;;;;;;;0.52;0.10;;;;;;;-142.37;100.00;59669.53;4968935;28;20053;-57
2021/04/30 09:59:29;;;;;;;0.80;0.22;;;;;;;-142.37;100.00;59669.53;4972268;28;20439;-56
2021/04/30 10:02:10;;;;;;;0.65;0.10;;;;;;;-142.37;100.00;59669.53;4971707;28;20034;-57
2021/04/30 10:04:37;;;;;;;0.50;0.20;;;;;;;-142.37;100.00;59669.53;4971399;28;20039;-56
2021/04/30 10:07:03;;;;;;;1.67;0.20;;;;;;;-142.37;100.00;59669.53;4971898;28;20122;-57
2021/04/30 10:09:30;;;;;;;0.15;0.08;;;;;;;-142.37;100.00;59669.53;4977415;28;20066;-56
2021/04/30 10:11:56;;;;;;;1.15;0.28;;;;;;;-142.37;100.00;59669.53;4971638;28;20105;-56
2021/04/30 10:14:23;;;;;;;0.88;0.20;;;;;;;-142.37;100.00;59669.53;4971228;28;20110;-56
2021/04/30 10:16:49;;;;;;;0.75;0.28;;;;;;;-142.37;100.00;59669.53;4989163;28;20049;-57
2021/04/30 10:19:14;;;;;;;1.73;0.20;;;;;;;-142.37;100.00;59669.53;4999633;23;20049;-56
2021/04/30 10:21:43;;;;;;;0.30;0.20;;;;;;;-142.37;100.00;59669.53;5052400;28;20021;-56
2021/04/30 10:24:14;;;;;;;0.32;0.10;;;;;;;-142.37;100.00;59669.53;5052110;28;20094;-57
2021/04/30 10:26:40;;;;;;;0.20;0.20;;;;;;;-142.37;100.00;59669.53;5052309;28;20021;-56
2021/04/30 10:29:08;;;;;;;1.13;0.30;;;;;;;-142.37;100.00;59669.53;5050633;28;20483;-57
2021/04/30 10:31:36;;;;;;;0.63;0.30;;;;;;;-142.37;100.00;59669.53;5034844;28;20029;-55
2021/04/30 10:34:11;;;;;;;0.57;0.10;;;;;;;-142.37;100.00;59669.53;5052071;28;20041;-56
2021/04/30 10:36:43;;;;;;;0.63;0.30;;;;;;;-142.37;100.00;59669.53;5059225;28;20033;-55
2021/04/30 10:39:09;;;;;;;0.93;0.28;;;;;;;-142.37;100.00;59669.53;5072535;28;20066;-55
2021/04/30 10:41:40;;;;;;;0.80;0.20;;;;;;;-142.37;100.00;59669.53;5057068;28;20032;-56
2021/04/30 10:44:17;;;;;;;0.73;0.10;;;;;;;-142.37;100.00;59669.53;5051758;28;20120;-55
2021/04/30 10:46:44;;;;;;;1.70;0.22;;;;;;;-142.37;100.00;59669.53;5051571;28;20025;-56
2021/04/30 10:49:19;;;;;;;0.10;0.10;;;;;;;-142.37;100.00;59669.53;5051097;28;20112;-55
2021/04/30 10:52:16;;;;;;;0.70;0.30;;;;;;;-142.37;100.00;59669.53;5048542;28;20402;-56
2021/04/30 10:54:42;;;;;;;0.63;0.20;;;;;;;-142.37;100.00;59669.53;5060664;28;20024;-55
2021/04/30 10:57:13;;;;;;;0.38;0.15;;;;;;;-142.37;100.00;59669.53;5053168;28;20037;-56
2021/04/30 10:59:38;;;;;;;0.80;0.10;;;;;;;-142.37;100.00;59669.53;5051625;28;20050;-55
2021/04/30 11:02:22;;;;;;;0.32;0.10;;;;;;;-142.37;100.00;59669.53;5050781;28;20025;-56
2021/04/30 11:05:02;;;;;;;0.90;0.30;;;;;;;-142.37;100.00;59669.53;5050904;28;20120;-55
2021/04/30 11:07:29;;;;;;;1.08;0.20;;;;;;;-142.37;100.00;59669.53;5050541;28;20040;-56
2021/04/30 11:09:54;;;;;;;1.00;0.30;;;;;;;-142.37;100.00;59669.53;5050840;28;20060;-55